Fort Riley, Kansas
Current Conditions -  °F | °C
As of 1:58 AM on Saturday 29 Nov 2014 (Local Time) from KFRI Reporting Station
Clear Clear  
Wind Chill: 45°   Ceiling: Unl
Heat Index: 47°   Visibility: 10mi
Dew Point: 40°   Wind: 5mph
Humidity: 78%   Direction: 220°SW
Pressure: 29.68"   Gusts: NA
Location:  39.07°N, 96.8°W
Report Text: KFRI 290758Z AUTO 22004KT 10SM CLR 08/05 A2968 RMK AO2 DZE0724B0752 SLP048 P0000 T00840047
Loading
Personal Weather Stations






























Interactive Weather Map New forecast layout! Learn more

10-Day Weather Forecast

Advertisements
Track Severe Weather on mobile